Terminal Aerodrome Forecast
Issued by NWS

Home | Current Version | Previous Version | Text Only | Print | Product List | Glossary On
Versions: 1 2 3 4 5 6 7 8 9 10 11 12 13 14 15 16 17 18 19 20 21 22 23 24 25 26
000
FTUS45 KGJT 222324
TAFRIL
TAF
KRIL 222324Z 2300/2324 06006KT P6SM VCSH FEW040 BKN050 OVC080
      TEMPO 2300/2303 -SHRA BKN040 OVC070
     FM230300 31008KT 3SM -SN BR BKN030 OVC050
      TEMPO 2305/2309 1SM -SN BR BKN015
     FM231200 28010KT 4SM -SN BR SCT020 BKN035
     FM231800 21012G20KT P6SM VCSH SCT020 OVC070=

USA.gov is the U.S. government's official web portal to all federal, state and local government web resources and services.